createdAt,value
2018-10-06T00:01:50.258Z,91.78
2018-10-06T00:04:21.096Z,91.37
2018-10-06T00:06:50.756Z,90.87
2018-10-06T00:09:21.620Z,90.89
2018-10-06T00:11:51.395Z,90.79
2018-10-06T00:14:22.596Z,90.63
2018-10-06T00:16:52.376Z,90.50
2018-10-06T00:19:24.036Z,90.32
2018-10-06T00:21:53.817Z,90.58
2018-10-06T00:24:23.439Z,90.74
2018-10-06T00:26:53.316Z,90.87
2018-10-06T00:29:23.116Z,91.08
2018-10-06T00:31:52.836Z,90.74
2018-10-06T00:34:22.597Z,90.90
2018-10-06T00:36:52.376Z,90.96
2018-10-06T00:39:22.138Z,90.95
2018-10-06T00:41:52.196Z,90.89
2018-10-06T00:44:21.977Z,90.71
2018-10-06T00:46:51.777Z,90.53
2018-10-06T00:49:21.498Z,90.79
2018-10-06T00:51:51.217Z,90.87
2018-10-06T00:54:21.097Z,91.04
2018-10-06T00:56:50.765Z,90.86
2018-10-06T00:59:20.517Z,90.91
2018-10-06T01:01:50.297Z,91.09
2018-10-06T01:04:19.922Z,90.75
2018-10-06T01:06:49.717Z,91.06
2018-10-06T01:09:19.437Z,91.21
2018-10-06T01:11:49.477Z,91.14
2018-10-06T01:14:19.199Z,91.18
2018-10-06T01:16:48.899Z,91.21
2018-10-06T01:19:18.598Z,91.15
2018-10-06T01:21:48.361Z,91.06
2018-10-06T01:24:18.079Z,91.02
2018-10-06T01:26:47.898Z,91.07
2018-10-06T01:29:17.639Z,91.47
2018-10-06T01:31:47.501Z,91.37
2018-10-06T01:34:17.239Z,91.48
2018-10-06T01:36:46.981Z,91.25
2018-10-06T01:39:16.620Z,91.03
2018-10-06T01:41:46.780Z,90.92
2018-10-06T01:44:16.379Z,91.21
2018-10-06T01:46:46.160Z,90.93
2018-10-06T01:49:15.841Z,91.18
2018-10-06T01:51:45.581Z,91.16
2018-10-06T01:54:15.280Z,91.43
2018-10-06T01:56:45.009Z,91.47
2018-10-06T01:59:15.104Z,91.26
2018-10-06T02:01:44.941Z,90.92
2018-10-06T02:04:15.004Z,91.05
2018-10-06T02:06:44.722Z,91.26
2018-10-06T02:09:14.281Z,91.13
2018-10-06T02:11:43.961Z,91.41
2018-10-06T02:14:13.681Z,91.50
2018-10-06T02:16:43.522Z,91.22
2018-10-06T02:19:13.182Z,91.56
2018-10-06T02:21:42.941Z,91.76
2018-10-06T02:24:12.682Z,91.70
2018-10-06T02:26:42.462Z,92.07
2018-10-06T02:29:12.104Z,92.10
2018-10-06T02:31:41.962Z,91.85
2018-10-06T02:34:11.566Z,92.40
2018-10-06T02:36:41.696Z,92.07
2018-10-06T02:39:11.344Z,91.86
2018-10-06T02:41:41.485Z,91.56
2018-10-06T02:44:11.145Z,91.59
2018-10-06T02:46:41.146Z,91.89
2018-10-06T02:49:11.245Z,91.34
2018-10-06T02:51:41.027Z,91.49
2018-10-06T02:54:10.766Z,91.93
2018-10-06T02:56:40.586Z,92.16
2018-10-06T02:59:10.308Z,91.94
2018-10-06T03:01:40.125Z,92.18
2018-10-06T03:04:09.805Z,92.29
2018-10-06T03:06:39.649Z,92.22
2018-10-06T03:09:10.148Z,92.37
2018-10-06T03:11:40.367Z,92.23
2018-10-06T03:14:10.033Z,92.06
2018-10-06T03:16:40.227Z,92.17
2018-10-06T03:19:09.927Z,92.02
2018-10-06T03:21:39.747Z,91.67
2018-10-06T03:24:09.407Z,91.70
2018-10-06T03:26:39.128Z,91.76
2018-10-06T03:29:08.767Z,91.70
2018-10-06T03:31:38.528Z,92.11
2018-10-06T03:34:08.228Z,91.94
2018-10-06T03:36:37.988Z,91.90
2018-10-06T03:39:09.728Z,92.06
2018-10-06T03:41:39.408Z,92.00
2018-10-06T03:44:09.167Z,91.94
2018-10-06T03:46:38.967Z,92.20
2018-10-06T03:49:08.688Z,91.75
2018-10-06T03:51:39.109Z,91.90
2018-10-06T03:54:11.243Z,91.87
2018-10-06T03:56:43.116Z,92.02
2018-10-06T03:59:13.809Z,91.90
2018-10-06T04:01:43.609Z,91.72
2018-10-06T04:04:13.328Z,91.42
2018-10-06T04:06:43.150Z,91.40
2018-10-06T04:09:12.869Z,91.46
2018-10-06T04:11:43.089Z,91.74
2018-10-06T04:14:12.688Z,91.69
2018-10-06T04:16:42.490Z,91.71
2018-10-06T04:19:12.211Z,91.66
2018-10-06T04:21:46.249Z,91.66
2018-10-06T04:24:16.850Z,91.99
2018-10-06T04:26:46.610Z,91.86
2018-10-06T04:29:16.230Z,91.71
2018-10-06T04:31:45.989Z,91.77
2018-10-06T04:34:15.671Z,91.70
2018-10-06T04:36:45.432Z,92.15
2018-10-06T04:39:15.092Z,92.05
2018-10-06T04:41:44.887Z,91.99
2018-10-06T04:44:14.510Z,91.88
2018-10-06T04:46:44.393Z,91.65
2018-10-06T04:49:14.240Z,91.98
2018-10-06T04:51:44.013Z,92.13
2018-10-06T04:54:13.981Z,91.82
2018-10-06T04:56:43.861Z,92.04
2018-10-06T04:59:13.481Z,92.29
2018-10-06T05:01:43.419Z,91.92
2018-10-06T05:04:15.869Z,92.33
2018-10-06T05:06:45.699Z,92.33
2018-10-06T05:09:15.540Z,92.48
2018-10-06T05:11:45.412Z,92.27
2018-10-06T05:14:15.119Z,92.47
2018-10-06T05:16:44.831Z,92.55
2018-10-06T05:19:17.364Z,92.23
2018-10-06T05:21:49.492Z,92.07
2018-10-06T05:24:19.140Z,92.21
2018-10-06T05:26:48.919Z,92.21
2018-10-06T05:29:18.640Z,91.99
2018-10-06T05:31:48.360Z,91.97
2018-10-06T05:34:18.146Z,91.96
2018-10-06T05:36:48.060Z,91.88
2018-10-06T05:39:17.680Z,91.99
2018-10-06T05:41:47.420Z,92.26
2018-10-06T05:44:17.220Z,92.32
2018-10-06T05:46:47.100Z,92.24
2018-10-06T05:49:16.860Z,92.53
2018-10-06T05:51:46.800Z,92.78
2018-10-06T05:54:16.563Z,92.87
2018-10-06T05:56:46.380Z,93.01
2018-10-06T05:59:16.153Z,93.02
2018-10-06T06:01:45.920Z,93.10
2018-10-06T06:04:15.607Z,93.33
2018-10-06T06:06:45.420Z,93.27
2018-10-06T06:09:15.141Z,93.34
2018-10-06T06:11:44.933Z,93.37
2018-10-06T06:14:14.700Z,93.66
2018-10-06T06:16:44.419Z,93.49
2018-10-06T06:19:14.120Z,93.77
2018-10-06T06:21:43.899Z,93.75
2018-10-06T06:24:13.652Z,93.53
2018-10-06T06:26:43.440Z,93.56
2018-10-06T06:29:13.051Z,93.66
2018-10-06T06:31:43.001Z,93.46
2018-10-06T06:34:12.861Z,93.97
2018-10-06T06:36:42.759Z,93.87
2018-10-06T06:39:12.600Z,93.75
2018-10-06T06:41:42.476Z,93.86
2018-10-06T06:44:12.212Z,94.14
2018-10-06T06:46:42.175Z,94.27
2018-10-06T06:49:11.902Z,94.16
2018-10-06T06:51:41.752Z,94.30
2018-10-06T06:54:11.431Z,93.96
2018-10-06T06:56:41.499Z,93.96
2018-10-06T06:59:11.299Z,94.07
2018-10-06T07:01:41.416Z,94.18
2018-10-06T07:04:11.174Z,93.99
2018-10-06T07:06:41.019Z,93.92
2018-10-06T07:09:10.931Z,93.63
2018-10-06T07:11:40.851Z,93.93
2018-10-06T07:14:10.702Z,93.75
2018-10-06T07:16:40.873Z,93.58
2018-10-06T07:19:10.611Z,93.11
2018-10-06T07:21:40.865Z,92.92
2018-10-06T07:24:10.554Z,92.72
2018-10-06T07:26:40.391Z,91.96
2018-10-06T07:29:10.100Z,91.76
2018-10-06T07:31:39.899Z,91.21
2018-10-06T07:34:09.659Z,90.82
2018-10-06T07:36:40.059Z,90.48
2018-10-06T07:39:09.790Z,90.50
2018-10-06T07:41:39.779Z,89.72
2018-10-06T07:44:09.519Z,87.95
2018-10-06T07:46:40.619Z,87.94
2018-10-06T07:49:11.657Z,87.15
2018-10-06T07:51:42.639Z,85.27
2018-10-06T07:54:12.459Z,83.27
2018-10-06T07:56:43.489Z,83.23
2018-10-06T07:59:13.408Z,81.94
2018-10-06T08:01:43.851Z,79.71
2018-10-06T08:04:13.515Z,79.94
2018-10-06T08:06:44.064Z,81.27
2018-10-06T08:09:13.833Z,78.91
2018-10-06T08:11:45.281Z,76.70
2018-10-06T08:14:15.096Z,74.43
2018-10-06T08:16:44.934Z,72.76
2018-10-06T08:19:14.814Z,73.73
2018-10-06T08:21:44.860Z,74.71
2018-10-06T08:24:14.697Z,72.39
2018-10-06T08:26:44.395Z,75.35
2018-10-06T08:29:14.155Z,71.00
2018-10-06T08:31:43.855Z,72.97
2018-10-06T08:34:13.681Z,70.60
2018-10-06T08:36:43.533Z,70.80
2018-10-06T08:39:13.296Z,69.97
2018-10-06T08:41:43.000Z,71.93
2018-10-06T08:44:12.795Z,72.81
2018-10-06T08:46:42.534Z,70.17
2018-10-06T08:49:12.354Z,68.98
2018-10-06T08:51:42.294Z,71.58
2018-10-06T08:54:12.173Z,65.49
2018-10-06T08:56:41.855Z,63.48
2018-10-06T08:59:11.655Z,65.79
2018-10-06T09:01:41.418Z,66.28
2018-10-06T09:04:11.232Z,63.67
2018-10-06T09:06:40.936Z,65.06
2018-10-06T09:09:11.294Z,65.64
2018-10-06T09:11:41.015Z,63.71
2018-10-06T09:14:10.793Z,62.17
2018-10-06T09:16:40.558Z,61.22
2018-10-06T09:19:10.313Z,60.02
2018-10-06T09:21:40.055Z,56.46
2018-10-06T09:24:09.895Z,53.96
2018-10-06T09:26:39.655Z,56.22
2018-10-06T09:29:09.495Z,54.97
2018-10-06T09:31:39.133Z,54.66
2018-10-06T09:34:08.942Z,53.02
2018-10-06T09:36:38.716Z,56.19
2018-10-06T09:39:10.388Z,53.24
2018-10-06T09:41:40.184Z,52.59
2018-10-06T09:44:10.253Z,52.79
2018-10-06T09:46:40.580Z,50.33
2018-10-06T09:49:10.317Z,53.52
2018-10-06T09:51:40.131Z,47.96
2018-10-06T09:54:10.001Z,49.45
2018-10-06T09:56:39.801Z,49.25
2018-10-06T09:59:09.736Z,49.90
2018-10-06T10:01:44.146Z,49.08
2018-10-06T10:04:16.077Z,50.75
2018-10-06T10:06:45.817Z,50.41
2018-10-06T10:09:17.328Z,50.21
2018-10-06T10:11:46.996Z,48.69
2018-10-06T10:14:16.855Z,50.33
2018-10-06T10:16:46.638Z,51.36
2018-10-06T10:19:16.521Z,50.83
2018-10-06T10:21:46.233Z,51.04
2018-10-06T10:24:15.979Z,49.79
2018-10-06T10:26:45.721Z,51.19
2018-10-06T10:29:15.594Z,49.59
2018-10-06T10:31:45.295Z,49.79
2018-10-06T10:34:15.075Z,49.75
2018-10-06T10:36:44.797Z,51.87
2018-10-06T10:39:14.720Z,49.58
2018-10-06T10:41:44.435Z,49.33
2018-10-06T10:44:14.345Z,48.06
2018-10-06T10:46:43.962Z,50.75
2018-10-06T10:49:13.819Z,48.00
2018-10-06T10:51:43.574Z,48.52
2018-10-06T10:54:13.417Z,50.59
2018-10-06T10:56:43.117Z,51.10
2018-10-06T10:59:12.916Z,51.27
2018-10-06T11:01:42.736Z,52.41
2018-10-06T11:04:12.734Z,52.26
2018-10-06T11:06:42.483Z,53.09
2018-10-06T11:09:12.255Z,53.39
2018-10-06T11:11:42.055Z,53.25
2018-10-06T11:14:11.976Z,54.33
2018-10-06T11:16:41.815Z,54.32
2018-10-06T11:19:11.652Z,55.08
2018-10-06T11:21:41.395Z,54.90
2018-10-06T11:24:11.214Z,55.72
2018-10-06T11:26:40.875Z,54.44
2018-10-06T11:29:10.836Z,51.82
2018-10-06T11:31:40.715Z,52.50
2018-10-06T11:34:10.556Z,52.54
2018-10-06T11:36:40.196Z,52.08
2018-10-06T11:39:11.035Z,51.79
2018-10-06T11:41:40.735Z,51.92
2018-10-06T11:44:10.495Z,52.96
2018-10-06T11:46:40.236Z,53.92
2018-10-06T11:49:10.016Z,53.15
2018-10-06T11:51:39.738Z,51.99
2018-10-06T11:54:09.556Z,51.31
2018-10-06T11:56:39.256Z,49.93
2018-10-06T11:59:09.132Z,51.34
2018-10-06T12:01:38.796Z,52.11
2018-10-06T12:04:08.596Z,52.68
2018-10-06T12:06:38.256Z,53.54
2018-10-06T12:09:09.577Z,52.46
2018-10-06T12:11:39.423Z,53.36
2018-10-06T12:14:09.257Z,49.93
2018-10-06T12:16:38.938Z,51.75
2018-10-06T12:24:57.470Z,47.69
2018-10-06T12:27:28.731Z,47.92
2018-10-06T12:29:58.947Z,47.18
2018-10-06T12:32:28.523Z,47.50
2018-10-06T12:34:58.197Z,48.53
2018-10-06T12:37:27.588Z,50.38
2018-10-06T12:39:57.170Z,44.67
2018-10-06T12:42:26.727Z,48.41
2018-10-06T12:44:56.375Z,46.24
2018-10-06T12:47:25.803Z,46.29
2018-10-06T12:49:55.435Z,47.63
2018-10-06T12:52:24.857Z,45.90
2018-10-06T12:54:55.090Z,44.44
2018-10-06T12:57:24.596Z,46.51
2018-10-06T12:59:54.306Z,48.27
2018-10-06T13:02:23.893Z,48.46
2018-10-06T13:04:53.493Z,46.63
2018-10-06T13:07:23.113Z,49.55
2018-10-06T13:09:52.695Z,51.03
2018-10-06T13:12:22.206Z,50.84
2018-10-06T13:14:51.793Z,52.04
2018-10-06T13:17:21.351Z,51.32
2018-10-06T13:19:50.867Z,50.81
2018-10-06T13:22:20.516Z,51.53
2018-10-06T13:24:50.140Z,51.10
2018-10-06T13:27:19.735Z,51.35
2018-10-06T13:29:49.166Z,51.00
2018-10-06T13:32:18.687Z,52.32
2018-10-06T13:34:48.879Z,50.82
2018-10-06T13:37:18.480Z,53.01
2018-10-06T13:39:48.574Z,52.73
2018-10-06T13:42:17.967Z,48.45
2018-10-06T13:44:47.734Z,48.75
2018-10-06T13:47:17.176Z,48.41
2018-10-06T13:49:47.044Z,48.55
2018-10-06T13:52:16.687Z,48.71
2018-10-06T13:54:47.276Z,48.47
2018-10-06T13:57:16.912Z,49.19
2018-10-06T13:59:46.438Z,48.14
2018-10-06T14:02:15.971Z,49.72
2018-10-06T14:04:45.492Z,50.86
2018-10-06T14:07:15.112Z,50.60
2018-10-06T14:09:44.653Z,51.37
2018-10-06T14:12:14.518Z,52.39
2018-10-06T14:14:44.205Z,52.17
2018-10-06T14:17:13.746Z,52.83
2018-10-06T14:19:43.285Z,53.26
2018-10-06T14:22:12.870Z,52.98
2018-10-06T14:24:42.392Z,53.93
2018-10-06T14:27:12.034Z,54.24
2018-10-06T14:29:41.492Z,53.62
2018-10-06T14:32:11.255Z,55.07
2018-10-06T14:34:40.693Z,55.04
2018-10-06T14:37:10.461Z,56.81
2018-10-06T14:39:39.885Z,55.87
2018-10-06T14:42:09.435Z,57.38
2018-10-06T14:44:39.086Z,57.79
2018-10-06T14:47:08.887Z,58.94
2018-10-06T14:49:38.280Z,58.96
2018-10-06T14:52:07.891Z,58.88
2018-10-06T14:54:37.473Z,60.10
2018-10-06T14:57:07.256Z,59.95
2018-10-06T14:59:36.705Z,60.24
2018-10-06T15:02:06.448Z,60.59
2018-10-06T15:04:35.899Z,61.28
2018-10-06T15:07:05.658Z,60.95
2018-10-06T15:09:35.195Z,63.45
2018-10-06T15:12:04.831Z,64.31
2018-10-06T15:14:34.339Z,66.39
2018-10-06T15:17:04.238Z,65.72
2018-10-06T15:19:33.812Z,66.35
2018-10-06T15:22:03.265Z,67.00
2018-10-06T15:24:32.611Z,67.68
2018-10-06T15:27:02.122Z,68.24
2018-10-06T15:29:31.593Z,69.84
2018-10-06T15:32:01.194Z,69.39
2018-10-06T15:34:30.805Z,71.13
2018-10-06T15:37:00.547Z,71.24
2018-10-06T15:39:30.020Z,71.45
2018-10-06T15:41:59.428Z,71.51
2018-10-06T15:44:28.848Z,72.34
2018-10-06T15:46:58.287Z,71.47
2018-10-06T15:49:28.371Z,72.62
2018-10-06T15:51:58.135Z,72.68
2018-10-06T15:54:27.792Z,73.49
2018-10-06T15:56:57.313Z,74.50
2018-10-06T15:59:26.772Z,74.48
2018-10-06T16:01:56.175Z,75.64
2018-10-06T16:04:25.650Z,76.05
2018-10-06T16:06:55.508Z,75.99
2018-10-06T16:09:24.856Z,76.94
2018-10-06T16:11:54.609Z,77.76
2018-10-06T16:14:24.058Z,77.67
2018-10-06T16:16:53.492Z,78.27
2018-10-06T16:19:22.926Z,77.42
2018-10-06T16:21:52.545Z,78.15
2018-10-06T16:24:22.147Z,78.15
2018-10-06T16:26:51.617Z,78.91
2018-10-06T16:29:21.027Z,78.32
2018-10-06T16:31:50.632Z,78.79
2018-10-06T16:34:19.961Z,78.83
2018-10-06T16:36:49.514Z,78.20
2018-10-06T16:39:18.949Z,78.87
2018-10-06T16:41:48.863Z,78.75
2018-10-06T16:44:18.255Z,78.66
2018-10-06T16:46:48.057Z,78.75
2018-10-06T16:49:17.607Z,79.20
2018-10-06T16:51:47.715Z,78.83
2018-10-06T16:54:17.119Z,78.32
2018-10-06T16:56:47.744Z,78.45
2018-10-06T16:59:17.255Z,77.71
2018-10-06T17:01:46.775Z,77.83
2018-10-06T17:04:16.388Z,78.13
2018-10-06T17:06:45.933Z,77.68
2018-10-06T17:09:15.620Z,78.80
2018-10-06T17:11:45.045Z,78.68
2018-10-06T17:14:14.589Z,79.27
2018-10-06T17:16:44.226Z,79.26
2018-10-06T17:19:13.605Z,79.26
2018-10-06T17:21:43.421Z,78.90
2018-10-06T17:24:12.964Z,78.36
2018-10-06T17:26:42.605Z,78.86
2018-10-06T17:29:12.057Z,79.20
2018-10-06T17:31:42.172Z,78.46
2018-10-06T17:34:11.585Z,78.10
2018-10-06T17:36:41.019Z,78.26
2018-10-06T17:39:10.490Z,78.42
2018-10-06T17:41:39.937Z,77.47
2018-10-06T17:44:10.562Z,77.05
2018-10-06T17:46:39.988Z,77.22
2018-10-06T17:49:09.495Z,77.79
2018-10-06T17:51:39.024Z,77.19
2018-10-06T17:54:08.678Z,78.02
2018-10-06T17:56:38.504Z,77.69
2018-10-06T17:59:07.990Z,78.31
2018-10-06T18:01:37.652Z,78.82
2018-10-06T18:04:07.093Z,78.96
2018-10-06T18:06:37.435Z,79.16
2018-10-06T18:09:08.552Z,79.59
2018-10-06T18:11:38.789Z,79.46
2018-10-06T18:14:08.349Z,79.35
2018-10-06T18:16:38.090Z,80.05
2018-10-06T18:19:08.357Z,80.65
2018-10-06T18:21:37.968Z,80.51
2018-10-06T18:24:07.408Z,79.88
2018-10-06T18:26:36.888Z,79.95
2018-10-06T18:29:06.927Z,80.80
2018-10-06T18:31:36.368Z,80.82
2018-10-06T18:34:05.846Z,81.55
2018-10-06T18:36:36.005Z,82.17
2018-10-06T18:39:06.627Z,82.00
2018-10-06T18:41:36.238Z,81.93
2018-10-06T18:44:11.342Z,82.35
2018-10-06T18:46:41.345Z,81.80
2018-10-06T18:49:10.870Z,81.77
2018-10-06T18:51:40.946Z,82.62
2018-10-06T18:54:10.463Z,82.35
2018-10-06T18:56:40.074Z,82.18
2018-10-06T18:59:27.283Z,82.40
2018-10-06T19:01:57.901Z,81.80
2018-10-06T19:04:27.383Z,81.94
2018-10-06T19:07:08.416Z,81.30
2018-10-06T19:09:37.997Z,81.23
2018-10-06T19:12:07.987Z,80.74
2018-10-06T19:14:37.535Z,80.63
2018-10-06T19:17:16.824Z,81.06
2018-10-06T19:19:46.487Z,80.47
2018-10-06T19:22:16.445Z,79.29
2018-10-06T19:25:08.608Z,80.00
2018-10-06T19:27:38.372Z,79.35
2018-10-06T19:30:08.080Z,79.78
2018-10-06T19:32:38.159Z,79.15
2018-10-06T19:35:07.652Z,80.19
2018-10-06T19:37:37.172Z,80.51
2018-10-06T19:40:06.765Z,80.28
2018-10-06T19:42:37.049Z,80.98
2018-10-06T19:45:06.527Z,81.53
2018-10-06T19:47:36.089Z,82.03
2018-10-06T19:50:05.812Z,80.87
2018-10-06T19:52:35.377Z,81.49
2018-10-06T19:55:04.869Z,81.22
2018-10-06T19:57:34.532Z,82.29
2018-10-06T20:00:03.936Z,82.10
2018-10-06T20:02:33.650Z,82.19
2018-10-06T20:05:03.116Z,82.48
2018-10-06T20:07:32.554Z,83.29
2018-10-06T20:10:02.181Z,83.52
2018-10-06T20:12:32.607Z,82.56
2018-10-06T20:15:02.091Z,83.46
2018-10-06T20:17:31.596Z,83.16
2018-10-06T20:20:01.201Z,84.13
2018-10-06T20:22:30.792Z,83.50
2018-10-06T20:25:00.360Z,84.29
2018-10-06T20:27:29.998Z,85.40
2018-10-06T20:29:59.482Z,85.92
2018-10-06T20:32:29.203Z,86.49
2018-10-06T20:34:58.694Z,86.96
2018-10-06T20:37:28.391Z,87.14
2018-10-06T20:39:57.865Z,86.41
2018-10-06T20:42:27.386Z,87.70
2018-10-06T20:44:57.011Z,87.76
2018-10-06T20:47:26.819Z,88.10
2018-10-06T20:49:56.347Z,88.45
2018-10-06T20:52:26.039Z,87.75
2018-10-06T20:54:55.517Z,87.91
2018-10-06T20:57:25.504Z,88.70
2018-10-06T20:59:55.015Z,89.36
2018-10-06T21:02:24.610Z,88.87
2018-10-06T21:04:54.052Z,88.77
2018-10-06T21:07:23.914Z,89.93
2018-10-06T21:09:53.359Z,89.33
2018-10-06T21:12:23.098Z,90.24
2018-10-06T21:14:52.534Z,89.81
2018-10-06T21:17:22.691Z,89.75
2018-10-06T21:19:52.235Z,89.95
2018-10-06T21:22:21.856Z,90.38
2018-10-06T21:24:51.316Z,90.79
2018-10-06T21:27:20.878Z,90.80
2018-10-06T21:29:50.459Z,90.78
2018-10-06T21:32:20.010Z,90.36
2018-10-06T21:34:49.519Z,90.11
2018-10-06T21:37:19.262Z,90.71
2018-10-06T21:39:48.711Z,90.30
2018-10-06T21:42:18.323Z,90.58
2018-10-06T21:44:47.784Z,90.19
2018-10-06T21:47:17.408Z,90.52
2018-10-06T21:49:46.931Z,90.41
2018-10-06T21:52:18.145Z,90.38
2018-10-06T21:54:47.741Z,91.10
2018-10-06T21:57:18.773Z,90.41
2018-10-06T21:59:48.310Z,90.41
2018-10-06T22:02:19.012Z,90.94
2018-10-06T22:04:48.691Z,90.76
2018-10-06T22:07:18.887Z,90.44
2018-10-06T22:09:48.552Z,90.65
2018-10-06T22:12:17.994Z,90.90
2018-10-06T22:14:48.059Z,91.17
2018-10-06T22:17:17.820Z,90.99
2018-10-06T22:19:47.376Z,91.11
2018-10-06T22:22:16.887Z,91.49
2018-10-06T22:24:46.596Z,91.54
2018-10-06T22:27:15.923Z,90.56
2018-10-06T22:29:45.373Z,90.86
2018-10-06T22:32:15.090Z,90.76
2018-10-06T22:34:44.755Z,89.94
2018-10-06T22:37:14.391Z,90.27
2018-10-06T22:39:43.912Z,90.89
2018-10-06T22:42:13.512Z,90.28
2018-10-06T22:44:43.258Z,91.00
2018-10-06T22:47:12.698Z,90.52
2018-10-06T22:49:42.382Z,90.43
2018-10-06T22:52:12.113Z,90.58
2018-10-06T22:54:41.653Z,90.36
2018-10-06T22:57:11.658Z,90.63
2018-10-06T22:59:41.815Z,90.51
2018-10-06T23:02:11.333Z,90.01
2018-10-06T23:04:41.138Z,90.24
2018-10-06T23:07:10.657Z,90.24
2018-10-06T23:09:40.251Z,89.89
2018-10-06T23:12:09.833Z,90.62
2018-10-06T23:14:39.480Z,90.36
2018-10-06T23:17:08.862Z,91.46
2018-10-06T23:19:38.476Z,90.81
2018-10-06T23:22:08.372Z,90.97
2018-10-06T23:24:37.929Z,90.94
2018-10-06T23:27:07.580Z,90.87
2018-10-06T23:29:37.151Z,90.66
2018-10-06T23:32:06.820Z,90.62
2018-10-06T23:34:36.368Z,91.30
2018-10-06T23:37:06.152Z,91.42
2018-10-06T23:39:35.773Z,91.84
2018-10-06T23:42:05.500Z,91.26
2018-10-06T23:44:35.120Z,91.67
2018-10-06T23:47:04.710Z,91.20
2018-10-06T23:49:34.467Z,91.87
2018-10-06T23:52:04.243Z,92.28
2018-10-06T23:54:33.829Z,91.70
2018-10-06T23:57:03.431Z,91.92
2018-10-06T23:59:32.872Z,92.07
